| time (UTC) | temp F | wind direction | speed knots | gust knots | rain 1hr in | rain 24hr in | rain mn in | humidity % | barometer mb |
| 20260502214205 | 59 | 143 | 0.9 | 2.6 | 0.00 | 0.19 | 0.19 | 96 | 1012.5 |
| 20260502213706 | 59 | 120 | 0.0 | 1.7 | 0.00 | 0.19 | 0.19 | 96 | 1012.7 |
| 20260502213229 | 59 | 120 | 0.0 | 2.6 | 0.00 | 0.19 | 0.19 | 96 | 1012.7 |
| 20260502212705 | 59 | 148 | 0.0 | 2.6 | 0.00 | 0.19 | 0.19 | 96 | 1012.7 |
| 20260502212205 | 59 | 148 | 0.0 | 1.7 | 0.00 | 0.19 | 0.19 | 96 | 1012.7 |
| 20260502211205 | 59 | 127 | 0.0 | 1.7 | 0.00 | 0.19 | 0.19 | 96 | 1012.7 |
| 20260502210705 | 58 | 127 | 0.0 | 1.7 | 0.00 | 0.19 | 0.19 | 96 | 1012.8 |
| 20260502205705 | 59 | 117 | 0.0 | 1.7 | 0.00 | 0.19 | 0.19 | 96 | 1012.7 |
| 20260502205205 | 59 | 313 | 0.0 | 0.9 | 0.00 | 0.19 | 0.19 | 96 | 1012.8 |
| 20260502203206 | 59 | 313 | 0.0 | 0.9 | 0.00 | 0.19 | 0.19 | 96 | 1013.0 |
| 20260502202705 | 59 | 313 | 0.0 | 0.0 | 0.00 | 0.19 | 0.19 | 96 | 1013.0 |
| 20260502202205 | 59 | 312 | 0.0 | 0.0 | 0.00 | 0.19 | 0.19 | 96 | 1013.1 |
| 20260502201705 | 59 | 312 | 0.0 | 0.0 | 0.00 | 0.19 | 0.19 | 96 | 1013.1 |
| 20260502201206 | 59 | 312 | 0.0 | 1.7 | 0.00 | 0.19 | 0.19 | 96 | 1013.1 |
| 20260502200705 | 60 | 312 | 0.0 | 1.7 | 0.00 | 0.19 | 0.19 | 96 | 1013.1 |
| 20260502200205 | 60 | 312 | 0.0 | 1.7 | 0.00 | 0.19 | 0.19 | 96 | 1013.2 |
| 20260502195707 | 60 | 312 | 0.0 | 0.0 | 0.00 | 0.19 | 0.19 | 96 | 1013.3 |
| 20260502195205 | 60 | 312 | 0.0 | 0.0 | 0.00 | 0.19 | 0.19 | 96 | 1013.1 |
| 20260502194205 | 60 | 312 | 0.0 | 1.7 | 0.00 | 0.19 | 0.19 | 96 | 1013.2 |
| 20260502193706 | 60 | 312 | 0.0 | 1.7 | 0.00 | 0.19 | 0.19 | 96 | 1013.1 |
| 20260502193205 | 60 | 312 | 0.0 | 1.7 | 0.00 | 0.19 | 0.19 | 96 | 1013.4 |
| 20260502192706 | 60 | 312 | 0.0 | 5.2 | 0.00 | 0.19 | 0.19 | 96 | 1013.5 |
| 20260502192205 | 60 | 312 | 0.0 | 5.2 | 0.00 | 0.19 | 0.19 | 96 | 1013.4 |
| 20260502190233 | 61 | 307 | 0.0 | 0.9 | 0.01 | 0.19 | 0.19 | 96 | 1013.2 |
| 20260502185705 | 61 | 285 | 0.0 | 4.3 | 0.01 | 0.19 | 0.19 | 96 | 1013.0 |
| 20260502185206 | 61 | 285 | 0.0 | 4.3 | 0.01 | 0.19 | 0.19 | 96 | 1013.0 |
| 20260502184705 | 61 | 285 | 0.9 | 4.3 | 0.06 | 0.19 | 0.19 | 95 | 1013.0 |
| 20260502184205 | 61 | 289 | 0.9 | 1.7 | 0.07 | 0.19 | 0.19 | 95 | 1012.9 |
| 20260502182706 | 61 | 139 | 0.9 | 2.6 | 0.09 | 0.19 | 0.19 | 95 | 1012.7 |
| 20260502181705 | 61 | 128 | 0.0 | 2.6 | 0.09 | 0.19 | 0.19 | 95 | 1012.7 |
| 20260502181207 | 61 | 110 | 0.0 | 2.6 | 0.09 | 0.19 | 0.19 | 94 | 1012.7 |
| 20260502180705 | 62 | 103 | 0.0 | 6.1 | 0.09 | 0.19 | 0.19 | 93 | 1012.7 |
| 20260502180205 | 62 | 262 | 0.9 | 6.1 | 0.08 | 0.18 | 0.18 | 92 | 1013.1 |
| 20260502170205 | 67 | 107 | 0.0 | 1.7 | 0.06 | 0.10 | 0.10 | 80 | 1013.0 |
| 20260502164205 | 70 | 107 | 0.0 | 3.5 | 0.00 | 0.05 | 0.05 | 73 | 1013.4 |
| 20260502163705 | 70 | 107 | 0.0 | 3.5 | 0.00 | 0.05 | 0.05 | 76 | 1013.2 |
| 20260502163206 | 70 | 107 | 0.0 | 6.1 | 0.00 | 0.05 | 0.05 | 76 | 1013.2 |
| 20260502162705 | 70 | 110 | 1.7 | 6.1 | 0.00 | 0.05 | 0.05 | 77 | 1013.4 |
| 20260502162205 | 70 | 116 | 2.6 | 6.1 | 0.00 | 0.05 | 0.05 | 75 | 1013.5 |
| 20260502161705 | 70 | 109 | 2.6 | 5.2 | 0.00 | 0.05 | 0.05 | 73 | 1013.6 |
| 20260502161206 | 71 | 132 | 0.9 | 5.2 | 0.00 | 0.05 | 0.05 | 74 | 1013.7 |
| 20260502160705 | 71 | 77 | 0.0 | 0.9 | 0.00 | 0.05 | 0.05 | 77 | 1013.6 |
| 20260502160205 | 70 | 77 | 0.0 | 0.0 | 0.00 | 0.05 | 0.05 | 80 | 1013.6 |
| 20260502152205 | 70 | 77 | 0.9 | 2.6 | 0.05 | 0.05 | 0.05 | 76 | 1014.0 |
| 20260502151705 | 69 | 77 | 0.0 | 1.7 | 0.05 | 0.05 | 0.05 | 78 | 1014.1 |
| 20260502151205 | 69 | 77 | 0.0 | 1.7 | 0.05 | 0.05 | 0.05 | 82 | 1014.2 |
| 20260502150705 | 68 | 89 | 0.0 | 0.9 | 0.05 | 0.05 | 0.05 | 82 | 1014.3 |
| 20260502150205 | 68 | 2 | 0.0 | 0.9 | 0.05 | 0.05 | 0.05 | 80 | 1014.4 |
| 20260502130706 | 71 | 325 | 0.9 | 6.1 | 0.00 | 0.00 | 0.00 | 66 | 1015.7 |
| 20260502130205 | 71 | 323 | 1.7 | 7.0 | 0.00 | 0.00 | 0.00 | 64 | 1015.7 |
| 20260502123705 | 72 | 314 | 1.7 | 10.4 | 0.00 | 0.00 | 0.00 | 61 | 1015.9 |
| 20260502123205 | 72 | 329 | 3.5 | 10.4 | 0.00 | 0.00 | 0.00 | 61 | 1015.8 |
| 20260502122705 | 72 | 328 | 3.5 | 7.0 | 0.00 | 0.00 | 0.00 | 58 | 1016.0 |
| 20260502122205 | 74 | 323 | 0.9 | 1.7 | 0.00 | 0.00 | 0.00 | 55 | 1016.0 |
| 20260502121705 | 75 | 298 | 0.0 | 0.9 | 0.00 | 0.00 | 0.00 | 53 | 1015.9 |
| 20260502121206 | 76 | 298 | 0.0 | 0.9 | 0.00 | 0.00 | 0.00 | 53 | 1015.8 |
| 20260502120706 | 76 | 297 | 0.0 | 0.9 | 0.00 | 0.00 | 0.00 | 51 | 1015.8 |
| 20260502120205 | 77 | 299 | 0.0 | 0.9 | 0.00 | 0.00 | 0.00 | 52 | 1015.8 |
| 20260502115705 | 76 | 299 | 0.0 | 1.7 | 0.00 | 0.00 | 0.00 | 51 | 1015.9 |
| 20260502115205 | 76 | 19 | 0.0 | 2.6 | 0.00 | 0.00 | 0.00 | 51 | 1015.9 |
| 20260502113705 | 76 | 58 | 0.0 | 1.7 | 0.00 | 0.00 | 0.00 | 48 | 1016.2 |
| 20260502113205 | 76 | 76 | 0.0 | 2.6 | 0.00 | 0.00 | 0.00 | 50 | 1016.2 |
| 20260502112205 | 75 | 56 | 0.0 | 2.6 | 0.00 | 0.00 | 0.00 | 50 | 1016.4 |
| 20260502111706 | 76 | 18 | 0.0 | 2.6 | 0.00 | 0.00 | 0.00 | 50 | 1016.5 |
| 20260502111206 | 76 | 70 | 0.0 | 1.7 | 0.00 | 0.00 | 0.00 | 48 | 1016.6 |
| 20260502110705 | 75 | 340 | 0.0 | 3.5 | 0.00 | 0.00 | 0.00 | 52 | 1016.6 |
| 20260502105705 | 74 | 335 | 0.9 | 3.5 | 0.00 | 0.00 | 0.00 | 51 | 1016.7 |
| 20260502105207 | 74 | 15 | 0.0 | 3.5 | 0.00 | 0.00 | 0.00 | 52 | 1016.7 |
| 20260502104706 | 75 | 66 | 0.0 | 2.6 | 0.00 | 0.00 | 0.00 | 49 | 1016.8 |
| 20260502104205 | 75 | 355 | 0.0 | 2.6 | 0.00 | 0.00 | 0.00 | 51 | 1016.9 |
| 20260502103724 | 74 | 355 | 0.0 | 6.1 | 0.00 | 0.00 | 0.00 | 51 | 1017.0 |
| 20260502103205 | 74 | 354 | 0.9 | 6.1 | 0.00 | 0.00 | 0.00 | 50 | 1017.0 |
| 20260502102206 | 74 | 68 | 0.9 | 3.5 | 0.00 | 0.00 | 0.00 | 48 | 1017.1 |
| 20260502101205 | 74 | 86 | 0.0 | 2.6 | 0.00 | 0.00 | 0.00 | 54 | 1017.2 |
| 20260502100705 | 74 | 79 | 0.0 | 3.5 | 0.00 | 0.00 | 0.00 | 52 | 1017.3 |
| 20260502100205 | 74 | 332 | 0.0 | 4.3 | 0.00 | 0.00 | 0.00 | 51 | 1017.4 |
| 20260502091228 | 72 | 318 | 0.9 | 2.6 | 0.00 | 0.00 | 0.00 | 52 | 1017.6 |
| 20260502090723 | 73 | 324 | 0.0 | 2.6 | 0.00 | 0.00 | 0.00 | 52 | 1017.6 |
| 20260502090233 | 73 | 115 | 0.0 | 2.6 | 0.00 | 0.00 | 0.00 | 54 | 1017.8 |
| 20260502071205 | 63 | 132 | 1.7 | 3.5 | 0.00 | 0.00 | 0.00 | 60 | 1018.1 |
| 20260502070705 | 63 | 125 | 0.9 | 2.6 | 0.00 | 0.00 | 0.00 | 60 | 1018.1 |
| 20260502070205 | 62 | 127 | 0.9 | 4.3 | 0.00 | 0.00 | 0.00 | 60 | 1018.0 |
| 20260502065705 | 62 | 122 | 0.9 | 4.3 | 0.00 | 0.00 | 0.00 | 61 | 1018.1 |
| 20260502065206 | 62 | 122 | 1.7 | 4.3 | 0.00 | 0.00 | 0.00 | 59 | 1018.2 |
| 20260502064705 | 61 | 120 | 1.7 | 4.3 | 0.00 | 0.00 | 0.00 | 59 | 1018.1 |
| 20260502063705 | 60 | 127 | 0.9 | 2.6 | 0.00 | 0.00 | 0.00 | 63 | 1018.1 |
| 20260502063205 | 59 | 110 | 0.9 | 2.6 | 0.00 | 0.00 | 0.00 | 66 | 1018.1 |
| 20260502062705 | 58 | 118 | 0.9 | 2.6 | 0.00 | 0.00 | 0.00 | 67 | 1018.1 |
| 20260502062206 | 58 | 118 | 0.9 | 2.6 | 0.00 | 0.00 | 0.00 | 68 | 1018.1 |
| 20260502061712 | 57 | 119 | 0.9 | 2.6 | 0.00 | 0.00 | 0.00 | 70 | 1018.1 |
| 20260502061205 | 57 | 119 | 0.0 | 1.7 | 0.00 | 0.00 | 0.00 | 70 | 1018.1 |
| 20260502060705 | 56 | 119 | 0.0 | 2.6 | 0.00 | 0.00 | 0.00 | 70 | 1018.1 |
| 20260502055705 | 55 | 119 | 0.9 | 2.6 | 0.00 | 0.00 | 0.00 | 69 | 1018.1 |
| 20260502055205 | 55 | 119 | 0.0 | 2.6 | 0.00 | 0.00 | 0.00 | 68 | 1018.0 |
| 20260502054706 | 56 | 119 | 0.0 | 0.9 | 0.00 | 0.00 | 0.00 | 64 | 1018.1 |
| 20260502054205 | 56 | 125 | 0.0 | 2.6 | 0.00 | 0.00 | 0.00 | 62 | 1018.0 |
| 20260502053705 | 55 | 125 | 0.9 | 2.6 | 0.00 | 0.00 | 0.00 | 63 | 1018.0 |
| 20260502053205 | 54 | 125 | 0.9 | 3.5 | 0.00 | 0.00 | 0.00 | 65 | 1018.0 |
| 20260502052705 | 53 | 145 | 1.7 | 3.5 | 0.00 | 0.00 | 0.00 | 69 | 1017.9 |
| 20260502052205 | 52 | 126 | 1.7 | 3.5 | 0.00 | 0.00 | 0.00 | 69 | 1018.0 |
| 20260502051706 | 51 | 137 | 1.7 | 3.5 | 0.00 | 0.00 | 0.00 | 70 | 1018.0 |
| 20260502040705 | 49 | 120 | 1.7 | 2.6 | 0.00 | 0.00 | 0.00 | 71 | 1017.9 |
| 20260502040205 | 49 | 120 | 1.7 | 3.5 | 0.00 | 0.00 | 0.00 | 71 | 1017.9 |
| 20260502035705 | 49 | 120 | 1.7 | 3.5 | 0.00 | 0.00 | 0.00 | 71 | 1018.0 |
| 20260502035206 | 48 | 122 | 0.9 | 4.3 | 0.00 | 0.00 | 0.00 | 71 | 1018.1 |
| 20260502034705 | 48 | 126 | 1.7 | 4.3 | 0.00 | 0.00 | 0.00 | 71 | 1018.1 |
| 20260502034211 | 48 | 133 | 1.7 | 4.3 | 0.00 | 0.00 | 0.00 | 71 | 1018.1 |
| 20260502033712 | 48 | 130 | 1.7 | 3.5 | 0.00 | 0.00 | 0.00 | 71 | 1018.1 |
| 20260502033205 | 48 | 124 | 0.9 | 2.6 | 0.00 | 0.00 | 0.00 | 71 | 1018.2 |
| 20260502032705 | 48 | 124 | 0.9 | 2.6 | 0.00 | 0.00 | 0.00 | 71 | 1018.3 |
| 20260502032205 | 48 | 124 | 0.9 | 3.5 | 0.00 | 0.00 | 0.00 | 71 | 1018.3 |
| 20260502031705 | 48 | 125 | 0.9 | 3.5 | 0.00 | 0.00 | 0.00 | 71 | 1018.2 |
| 20260502031206 | 48 | 125 | 0.9 | 3.5 | 0.00 | 0.00 | 0.00 | 70 | 1018.3 |
| 20260502030727 | 48 | 123 | 0.9 | 3.5 | 0.00 | 0.00 | 0.00 | 70 | 1018.3 |
| 20260502030205 | 48 | 120 | 1.7 | 3.5 | 0.00 | 0.00 | 0.00 | 70 | 1018.3 |
| 20260502025705 | 48 | 120 | 1.7 | 2.6 | 0.00 | 0.00 | 0.00 | 69 | 1018.3 |
| 20260502025205 | 48 | 119 | 0.9 | 2.6 | 0.00 | 0.00 | 0.00 | 69 | 1018.4 |
| 20260502024705 | 49 | 119 | 1.7 | 2.6 | 0.00 | 0.00 | 0.00 | 69 | 1018.5 |
| 20260502024206 | 49 | 119 | 0.9 | 2.6 | 0.00 | 0.00 | 0.00 | 68 | 1018.6 |
| 20260502023705 | 49 | 119 | 0.9 | 2.6 | 0.00 | 0.00 | 0.00 | 67 | 1018.6 |
| 20260502023207 | 49 | 119 | 0.9 | 2.6 | 0.00 | 0.00 | 0.00 | 66 | 1018.6 |
| 20260502022705 | 50 | 125 | 0.0 | 2.6 | 0.00 | 0.00 | 0.00 | 65 | 1018.7 |
| 20260502021705 | 52 | 124 | 0.9 | 3.5 | 0.00 | 0.00 | 0.00 | 62 | 1018.7 |
| 20260502021205 | 52 | 124 | 1.7 | 3.5 | 0.00 | 0.00 | 0.00 | 62 | 1018.6 |
| 20260502020704 | 51 | 122 | 1.7 | 3.5 | 0.00 | 0.00 | 0.00 | 63 | 1018.6 |
| 20260502015705 | 51 | 121 | 1.7 | 3.5 | 0.00 | 0.00 | 0.00 | 64 | 1018.6 |
| 20260502014705 | 51 | 105 | 1.7 | 4.3 | 0.00 | 0.00 | 0.00 | 63 | 1018.7 |
| 20260502014205 | 52 | 117 | 1.7 | 3.5 | 0.00 | 0.00 | 0.00 | 61 | 1018.7 |
| 20260502013705 | 53 | 123 | 1.7 | 3.5 | 0.00 | 0.00 | 0.00 | 59 | 1018.7 |
| 20260502013228 | 53 | 120 | 1.7 | 3.5 | 0.00 | 0.00 | 0.00 | 59 | 1018.7 |
| 20260502012705 | 53 | 117 | 1.7 | 3.5 | 0.00 | 0.00 | 0.00 | 58 | 1018.8 |
| 20260502012205 | 53 | 122 | 1.7 | 3.5 | 0.00 | 0.00 | 0.00 | 59 | 1018.9 |
| 20260502011705 | 53 | 124 | 0.9 | 3.5 | 0.00 | 0.00 | 0.00 | 60 | 1018.9 |
| 20260502011205 | 52 | 124 | 0.9 | 3.5 | 0.00 | 0.00 | 0.00 | 61 | 1018.9 |
| 20260502010705 | 52 | 124 | 1.7 | 3.5 | 0.00 | 0.00 | 0.00 | 61 | 1018.9 |
| 20260502010205 | 52 | 131 | 1.7 | 3.5 | 0.00 | 0.00 | 0.00 | 61 | 1018.9 |
| 20260502005208 | 52 | 129 | 0.9 | 3.5 | 0.00 | 0.00 | 0.00 | 61 | 1019.0 |
| 20260502004205 | 51 | 126 | 0.9 | 3.5 | 0.00 | 0.00 | 0.00 | 63 | 1019.2 |
| 20260502003705 | 51 | 124 | 0.9 | 3.5 | 0.00 | 0.00 | 0.00 | 65 | 1019.2 |
| 20260502003206 | 51 | 124 | 1.7 | 3.5 | 0.00 | 0.00 | 0.00 | 66 | 1019.3 |
| 20260502002205 | 51 | 124 | 0.9 | 2.6 | 0.00 | 0.00 | 0.00 | 66 | 1019.4 |
| 20260502001205 | 51 | 124 | 0.9 | 1.7 | 0.00 | 0.00 | 0.00 | 67 | 1019.6 |
| 20260502000205 | 49 | 125 | 0.0 | 0.9 | 0.00 | 0.00 | 0.00 | 72 | 1019.7 |
| 20260501235705 | 49 | 126 | 0.0 | 0.9 | 0.00 | 0.00 | 0.00 | 73 | 1019.8 |
| 20260501235205 | 48 | 125 | 0.0 | 0.9 | 0.00 | 0.00 | 0.00 | 73 | 1019.8 |
| 20260501234705 | 48 | 126 | 0.0 | 0.9 | 0.00 | 0.00 | 0.00 | 73 | 1019.9 |
| 20260501234205 | 49 | 126 | 0.0 | 0.0 | 0.00 | 0.00 | 0.00 | 72 | 1020.0 |
| 20260501233705 | 49 | 125 | 0.0 | 0.0 | 0.00 | 0.00 | 0.00 | 72 | 1020.0 |
| 20260501233206 | 49 | 125 | 0.0 | 0.0 | 0.00 | 0.00 | 0.00 | 71 | 1020.0 |
| 20260501232705 | 49 | 125 | 0.0 | 0.0 | 0.00 | 0.00 | 0.00 | 71 | 1020.1 |
| 20260501232205 | 49 | 126 | 0.0 | 0.0 | 0.00 | 0.00 | 0.00 | 70 | 1020.1 |
| 20260501231705 | 49 | 126 | 0.0 | 0.0 | 0.00 | 0.00 | 0.00 | 68 | 1020.2 |
| 20260501231205 | 50 | 126 | 0.0 | 0.0 | 0.00 | 0.00 | 0.00 | 67 | 1020.2 |
| 20260501230705 | 50 | 126 | 0.0 | 0.0 | 0.00 | 0.00 | 0.00 | 67 | 1020.3 |
| 20260501225706 | 52 | 125 | 0.0 | 0.0 | 0.00 | 0.00 | 0.00 | 62 | 1020.2 |
| 20260501225205 | 53 | 126 | 0.0 | 0.0 | 0.00 | 0.00 | 0.00 | 60 | 1020.2 |
| 20260501224706 | 54 | 125 | 0.0 | 0.0 | 0.00 | 0.00 | 0.00 | 58 | 1020.1 |
| 20260501224205 | 55 | 126 | 0.0 | 0.9 | 0.00 | 0.00 | 0.00 | 57 | 1020.2 |
| 20260501223705 | 56 | 125 | 0.0 | 0.9 | 0.00 | 0.00 | 0.00 | 55 | 1020.2 |
| 20260501223207 | 56 | 125 | 0.0 | 0.9 | 0.00 | 0.00 | 0.00 | 53 | 1020.2 |
| 20260501222708 | 57 | 126 | 0.0 | 0.9 | 0.00 | 0.00 | 0.00 | 53 | 1020.2 |
| 20260501222205 | 57 | 125 | 0.0 | 0.9 | 0.00 | 0.00 | 0.00 | 53 | 1020.2 |
| 20260501221705 | 57 | 126 | 0.0 | 0.9 | 0.00 | 0.00 | 0.00 | 53 | 1020.2 |
| 20260501221206 | 57 | 126 | 0.0 | 0.9 | 0.00 | 0.00 | 0.00 | 52 | 1020.2 |
| 20260501220705 | 57 | 125 | 0.0 | 0.9 | 0.00 | 0.00 | 0.00 | 53 | 1020.2 |
| 20260501220206 | 57 | 126 | 0.0 | 0.9 | 0.00 | 0.00 | 0.00 | 53 | 1020.2 |
| 20260501215205 | 57 | 126 | 0.0 | 0.0 | 0.00 | 0.00 | 0.00 | 53 | 1020.2 |